Terminal Aerodrome Forecast
Issued by NWS Mt. Holly, NJ

Home | Current Version | Previous Version | Text Only | Print | Product List | Glossary On
Versions: 1 2 3 4 5 6 7 8 9 10 11 12 13 14 15 16 17 18 19 20 21 22 23 24 25 26 27 28
000
FTUS41 KPHI 211140
TAFPHL
TAF
KPHL 211140Z 2112/2218 20006KT P6SM SCT250
     FM211500 22011G21KT P6SM SCT250
     FM212300 20009KT P6SM OVC120 PROB30 2205/2208 6SM -SHRA OVC050
     FM220800 23005KT P6SM OVC035 PROB30 2208/2211 6SM -SHRA
     FM221100 27010KT P6SM BKN035
     FM221500 32012G22KT P6SM SCT035=

USA.gov is the U.S. government's official web portal to all federal, state and local government web resources and services.